createdAt,value
2023-02-13T00:00:12.008Z,76.90
2023-02-13T00:02:38.724Z,77.10
2023-02-13T00:05:05.613Z,77.10
2023-02-13T00:07:32.304Z,77.10
2023-02-13T00:09:58.949Z,77.20
2023-02-13T00:12:25.612Z,77.10
2023-02-13T00:14:52.253Z,77.20
2023-02-13T00:17:18.930Z,77.10
2023-02-13T00:19:45.616Z,77.20
2023-02-13T00:22:12.234Z,77.30
2023-02-13T00:24:38.863Z,77.30
2023-02-13T00:27:05.494Z,77.40
2023-02-13T00:29:32.207Z,77.40
2023-02-13T00:31:58.937Z,77.40
2023-02-13T00:34:25.665Z,77.30
2023-02-13T00:36:52.377Z,77.40
2023-02-13T00:39:19.014Z,77.40
2023-02-13T00:41:45.707Z,77.50
2023-02-13T00:44:12.368Z,77.60
2023-02-13T00:46:39.147Z,77.80
2023-02-13T00:49:05.970Z,77.70
2023-02-13T00:51:32.674Z,77.80
2023-02-13T00:53:59.351Z,77.90
2023-02-13T00:56:25.953Z,77.80
2023-02-13T00:58:52.731Z,77.80
2023-02-13T01:01:19.412Z,77.80
2023-02-13T01:03:46.069Z,77.90
2023-02-13T01:06:12.756Z,77.80
2023-02-13T01:08:39.982Z,77.70
2023-02-13T01:11:07.145Z,77.90
2023-02-13T01:13:33.913Z,78.00
2023-02-13T01:16:00.928Z,78.00
2023-02-13T01:18:27.642Z,78.00
2023-02-13T01:21:02.776Z,78.00
2023-02-13T01:23:33.453Z,78.00
2023-02-13T01:26:00.319Z,78.10
2023-02-13T01:28:27.203Z,78.20
2023-02-13T01:30:55.160Z,78.10
2023-02-13T01:33:23.100Z,78.10
2023-02-13T01:35:50.270Z,78.20
2023-02-13T01:38:17.167Z,78.20
2023-02-13T01:40:53.837Z,78.20
2023-02-13T01:43:20.631Z,78.20
2023-02-13T01:45:48.449Z,78.20
2023-02-13T01:48:25.306Z,78.30
2023-02-13T01:50:55.748Z,78.30
2023-02-13T01:53:37.982Z,78.30
2023-02-13T01:56:13.636Z,78.60
2023-02-13T01:58:41.157Z,78.50
2023-02-13T02:04:00.632Z,78.50
2023-02-13T02:06:29.554Z,78.60
2023-02-13T02:08:57.419Z,78.60
2023-02-13T02:11:39.221Z,78.60
2023-02-13T02:14:05.838Z,78.80
2023-02-13T02:16:32.511Z,78.80
2023-02-13T02:19:01.502Z,78.90
2023-02-13T02:21:50.772Z,79.00
2023-02-13T02:24:37.786Z,78.80
2023-02-13T02:27:34.674Z,78.90
2023-02-13T02:30:29.169Z,78.90
2023-02-13T02:33:17.826Z,79.00
2023-02-13T02:36:13.293Z,79.00
2023-02-13T02:38:56.262Z,79.00
2023-02-13T02:42:06.370Z,79.00
2023-02-13T02:44:39.108Z,79.10
2023-02-13T02:47:33.018Z,79.20
2023-02-13T02:50:09.384Z,79.30
2023-02-13T02:53:05.340Z,79.30
2023-02-13T02:55:52.024Z,79.30
2023-02-13T02:58:24.464Z,79.30
2023-02-13T03:00:51.099Z,79.40
2023-02-13T03:03:19.236Z,79.50
2023-02-13T03:05:46.304Z,79.50
2023-02-13T03:08:13.100Z,79.60
2023-02-13T03:10:39.684Z,79.70
2023-02-13T03:13:09.274Z,79.70
2023-02-13T03:15:38.448Z,79.90
2023-02-13T03:18:05.240Z,79.80
2023-02-13T03:20:43.017Z,79.90
2023-02-13T03:23:15.643Z,80.00
2023-02-13T03:25:57.522Z,79.90
2023-02-13T03:28:40.452Z,79.90
2023-02-13T03:31:32.411Z,79.90
2023-02-13T03:34:05.041Z,79.80
2023-02-13T03:36:33.658Z,79.60
2023-02-13T03:39:03.594Z,79.70
2023-02-13T03:41:30.144Z,79.80
2023-02-13T03:44:05.261Z,80.10
2023-02-13T03:46:34.205Z,79.80
2023-02-13T03:49:02.652Z,79.90
2023-02-13T03:51:49.880Z,80.10
2023-02-13T03:54:47.296Z,80.20
2023-02-13T03:57:15.504Z,80.50
2023-02-13T03:59:42.091Z,80.60
2023-02-13T04:02:16.902Z,80.90
2023-02-13T04:04:49.909Z,80.90
2023-02-13T04:07:17.645Z,81.00
2023-02-13T04:09:46.711Z,81.10
2023-02-13T04:12:26.226Z,81.50
2023-02-13T04:14:59.920Z,81.50
2023-02-13T04:17:48.233Z,81.70
2023-02-13T04:20:14.910Z,81.90
2023-02-13T04:22:45.247Z,82.10
2023-02-13T04:25:12.747Z,82.00
2023-02-13T04:27:39.460Z,82.20
2023-02-13T04:30:06.776Z,82.20
2023-02-13T04:32:33.416Z,82.40
2023-02-13T04:35:00.102Z,82.50
2023-02-13T04:37:26.758Z,82.70
2023-02-13T04:39:53.419Z,82.80
2023-02-13T04:42:20.049Z,82.80
2023-02-13T04:44:46.717Z,82.90
2023-02-13T04:47:13.397Z,83.10
2023-02-13T04:49:40.034Z,83.10
2023-02-13T04:52:06.905Z,83.20
2023-02-13T04:54:33.590Z,83.40
2023-02-13T04:57:00.247Z,83.60
2023-02-13T04:59:26.868Z,83.60
2023-02-13T05:01:53.505Z,83.70
2023-02-13T05:04:20.293Z,83.70
2023-02-13T05:06:46.988Z,83.70
2023-02-13T05:09:13.769Z,83.80
2023-02-13T05:11:40.432Z,83.80
2023-02-13T05:14:07.107Z,83.80
2023-02-13T05:16:33.854Z,83.90
2023-02-13T05:19:00.542Z,84.00
2023-02-13T05:21:27.202Z,84.10
2023-02-13T05:23:53.845Z,84.10
2023-02-13T05:26:20.500Z,84.00
2023-02-13T05:28:47.181Z,84.20
2023-02-13T05:31:14.040Z,84.10
2023-02-13T05:33:40.766Z,84.20
2023-02-13T05:36:07.829Z,84.30
2023-02-13T05:38:34.448Z,84.20
2023-02-13T05:41:01.112Z,84.30
2023-02-13T05:43:28.647Z,84.20
2023-02-13T05:46:02.933Z,84.20
2023-02-13T05:48:29.930Z,84.30
2023-02-13T05:50:56.822Z,84.70
2023-02-13T05:53:23.710Z,84.50
2023-02-13T05:55:50.386Z,84.70
2023-02-13T05:58:16.990Z,84.80
2023-02-13T06:00:43.680Z,84.80
2023-02-13T06:03:10.390Z,85.10
2023-02-13T06:05:37.074Z,85.10
2023-02-13T06:08:03.912Z,85.30
2023-02-13T06:10:30.582Z,85.30
2023-02-13T06:12:57.208Z,85.20
2023-02-13T06:15:23.897Z,85.20
2023-02-13T06:17:50.529Z,85.10
2023-02-13T06:20:17.213Z,85.10
2023-02-13T06:22:43.893Z,85.20
2023-02-13T06:25:10.513Z,85.30
2023-02-13T06:27:37.200Z,85.20
2023-02-13T06:30:04.030Z,85.10
2023-02-13T06:32:30.718Z,85.10
2023-02-13T06:34:57.374Z,85.10
2023-02-13T06:37:24.114Z,85.20
2023-02-13T06:39:53.339Z,85.50
2023-02-13T06:42:22.947Z,85.60
2023-02-13T06:44:49.701Z,85.60
2023-02-13T06:47:17.773Z,85.70
2023-02-13T06:49:44.432Z,85.70
2023-02-13T06:52:11.142Z,85.80
2023-02-13T06:54:47.292Z,85.70
2023-02-13T06:57:14.873Z,85.70
2023-02-13T06:59:41.772Z,85.90
2023-02-13T07:02:11.387Z,85.80
2023-02-13T07:04:38.135Z,86.00
2023-02-13T07:07:07.888Z,86.20
2023-02-13T07:09:34.778Z,86.40
2023-02-13T07:12:05.130Z,86.70
2023-02-13T07:14:31.844Z,86.90
2023-02-13T07:16:58.708Z,87.20
2023-02-13T07:19:25.401Z,87.40
2023-02-13T07:21:52.185Z,87.50
2023-02-13T07:24:18.815Z,87.70
2023-02-13T07:26:45.612Z,87.70
2023-02-13T07:29:12.607Z,87.80
2023-02-13T07:31:39.530Z,87.80
2023-02-13T07:34:06.250Z,87.80
2023-02-13T07:36:32.946Z,88.00
2023-02-13T07:38:59.630Z,88.30
2023-02-13T07:41:26.308Z,88.50
2023-02-13T07:43:53.920Z,88.70
2023-02-13T07:46:21.908Z,88.70
2023-02-13T07:48:48.741Z,88.50
2023-02-13T07:51:15.451Z,88.20
2023-02-13T07:53:42.092Z,88.20
2023-02-13T07:56:09.307Z,88.30
2023-02-13T07:58:37.518Z,88.50
2023-02-13T08:01:08.711Z,88.40
2023-02-13T08:03:35.652Z,88.60
2023-02-13T08:06:02.434Z,88.70
2023-02-13T08:08:29.331Z,88.90
2023-02-13T08:10:56.076Z,88.80
2023-02-13T08:13:22.754Z,88.70
2023-02-13T08:15:49.366Z,88.80
2023-02-13T08:18:18.096Z,88.80
2023-02-13T08:20:48.595Z,88.80
2023-02-13T08:23:15.359Z,88.70
2023-02-13T08:25:42.040Z,88.80
2023-02-13T08:28:08.855Z,89.10
2023-02-13T08:30:35.590Z,89.30
2023-02-13T08:33:02.222Z,89.20
2023-02-13T08:35:31.963Z,88.70
2023-02-13T08:38:02.402Z,88.00
2023-02-13T08:40:29.257Z,87.60
2023-02-13T08:43:03.207Z,87.30
2023-02-13T08:45:30.129Z,87.00
2023-02-13T08:47:59.912Z,86.60
2023-02-13T08:50:27.055Z,86.60
2023-02-13T08:52:54.162Z,86.70
2023-02-13T08:55:20.976Z,86.60
2023-02-13T08:57:47.742Z,86.40
2023-02-13T09:00:14.902Z,86.30
2023-02-13T09:02:41.689Z,86.30
2023-02-13T09:05:08.431Z,86.10
2023-02-13T09:07:35.215Z,86.10
2023-02-13T09:10:01.879Z,86.00
2023-02-13T09:12:28.983Z,85.90
2023-02-13T09:14:55.688Z,85.80
2023-02-13T09:17:22.305Z,85.60
2023-02-13T09:19:49.068Z,85.70
2023-02-13T09:22:15.842Z,86.40
2023-02-13T09:24:42.603Z,87.40
2023-02-13T09:27:09.369Z,88.90
2023-02-13T09:29:36.020Z,89.80
2023-02-13T09:32:02.763Z,90.30
2023-02-13T09:34:29.450Z,89.70
2023-02-13T09:36:56.120Z,88.10
2023-02-13T09:39:22.794Z,85.60
2023-02-13T09:41:50.812Z,82.60
2023-02-13T09:44:30.992Z,80.00
2023-02-13T09:46:57.730Z,77.50
2023-02-13T09:49:27.838Z,76.10
2023-02-13T09:51:56.235Z,73.90
2023-02-13T09:54:22.917Z,70.80
2023-02-13T09:57:03.036Z,68.90
2023-02-13T09:59:51.714Z,66.90
2023-02-13T10:02:38.718Z,65.00
2023-02-13T10:05:40.248Z,63.40
2023-02-13T10:08:13.069Z,60.80
2023-02-13T10:11:01.919Z,60.20
2023-02-13T10:13:34.596Z,58.60
2023-02-13T10:16:12.534Z,57.40
2023-02-13T10:18:49.499Z,55.80
2023-02-13T10:21:18.049Z,54.50
2023-02-13T10:23:48.150Z,54.30
2023-02-13T10:26:22.832Z,53.20
2023-02-13T10:29:26.814Z,53.00
2023-02-13T10:31:53.767Z,51.90
2023-02-13T10:34:22.090Z,51.50
2023-02-13T10:36:48.807Z,50.30
2023-02-13T10:39:29.367Z,49.30
2023-02-13T10:42:05.717Z,49.10
2023-02-13T10:44:50.947Z,48.20
2023-02-13T10:47:23.294Z,47.70
2023-02-13T10:50:08.362Z,46.70
2023-02-13T10:53:21.787Z,45.30
2023-02-13T10:55:56.328Z,45.40
2023-02-13T10:58:57.348Z,44.80
2023-02-13T11:01:48.903Z,44.60
2023-02-13T11:04:18.188Z,44.80
2023-02-13T11:06:57.095Z,44.10
2023-02-13T11:09:24.257Z,43.10
2023-02-13T11:11:51.213Z,42.90
2023-02-13T11:14:19.771Z,42.30
2023-02-13T11:16:59.908Z,42.00
2023-02-13T11:19:33.597Z,41.30
2023-02-13T11:22:11.634Z,41.40
2023-02-13T11:24:43.937Z,40.70
2023-02-13T11:27:11.568Z,40.10
2023-02-13T11:29:38.374Z,40.50
2023-02-13T11:32:18.536Z,40.00
2023-02-13T11:34:45.497Z,39.00
2023-02-13T11:37:22.019Z,38.60
2023-02-13T11:39:51.315Z,38.30
2023-02-13T11:42:29.462Z,38.50
2023-02-13T11:45:00.183Z,37.50
2023-02-13T11:47:36.242Z,37.40
2023-02-13T11:50:03.217Z,37.60
2023-02-13T11:52:32.382Z,37.20
2023-02-13T11:55:23.743Z,36.80
2023-02-13T11:57:58.226Z,36.50
2023-02-13T12:00:28.445Z,36.60
2023-02-13T12:02:55.188Z,36.40
2023-02-13T12:05:23.922Z,36.30
2023-02-13T12:07:50.794Z,36.00
2023-02-13T12:10:25.384Z,35.50
2023-02-13T12:12:59.729Z,34.80
2023-02-13T12:15:27.854Z,35.10
2023-02-13T12:18:06.788Z,34.90
2023-02-13T12:20:44.744Z,34.30
2023-02-13T12:23:30.443Z,33.90
2023-02-13T12:26:09.191Z,34.80
2023-02-13T12:28:52.857Z,34.20
2023-02-13T12:32:04.211Z,33.70
2023-02-13T12:34:59.666Z,33.90
2023-02-13T12:38:06.832Z,34.70
2023-02-13T12:41:42.628Z,34.20
2023-02-13T12:44:35.707Z,34.60
2023-02-13T12:47:24.892Z,34.00
2023-02-13T12:50:23.995Z,33.40
2023-02-13T12:53:02.715Z,33.30
2023-02-13T12:56:01.537Z,33.30
2023-02-13T12:58:39.804Z,31.90
2023-02-13T13:01:34.585Z,33.00
2023-02-13T13:04:28.961Z,33.20
2023-02-13T13:07:10.978Z,33.10
2023-02-13T13:09:49.445Z,32.90
2023-02-13T13:12:43.395Z,32.20
2023-02-13T13:15:35.271Z,33.00
2023-02-13T13:18:35.897Z,33.20
2023-02-13T13:21:21.756Z,32.10
2023-02-13T13:23:58.739Z,32.90
2023-02-13T13:26:33.928Z,33.20
2023-02-13T13:29:00.738Z,32.80
2023-02-13T13:31:27.586Z,32.60
2023-02-13T13:33:56.147Z,33.00
2023-02-13T13:36:31.364Z,32.30
2023-02-13T13:39:09.439Z,32.10
2023-02-13T13:41:51.479Z,32.40
2023-02-13T13:44:27.326Z,32.40
2023-02-13T13:47:02.742Z,32.30
2023-02-13T13:49:38.202Z,32.10
2023-02-13T13:52:36.554Z,32.40
2023-02-13T13:55:05.617Z,32.50
2023-02-13T13:57:41.564Z,32.20
2023-02-13T14:00:14.049Z,31.90
2023-02-13T14:02:51.154Z,32.00
2023-02-13T14:05:30.961Z,32.00
2023-02-13T14:08:02.795Z,32.10
2023-02-13T14:10:30.640Z,31.90
2023-02-13T14:13:17.532Z,31.80
2023-02-13T14:15:44.246Z,31.90
2023-02-13T14:18:11.026Z,31.70
2023-02-13T14:20:38.844Z,31.80
2023-02-13T14:23:26.709Z,32.00
2023-02-13T14:26:14.988Z,32.20
2023-02-13T14:28:50.698Z,32.90
2023-02-13T14:31:25.472Z,32.60
2023-02-13T14:34:01.441Z,32.10
2023-02-13T14:36:32.632Z,32.20
2023-02-13T14:39:29.507Z,32.40
2023-02-13T14:42:00.477Z,32.80
2023-02-13T14:44:37.927Z,33.40
2023-02-13T14:47:11.888Z,34.50
2023-02-13T14:49:48.760Z,35.60
2023-02-13T14:52:26.500Z,36.70
2023-02-13T14:55:31.453Z,38.30
2023-02-13T14:58:04.696Z,40.30
2023-02-13T15:00:59.784Z,39.80
2023-02-13T15:03:32.599Z,41.40
2023-02-13T15:06:04.700Z,41.40
2023-02-13T15:08:41.356Z,41.70
2023-02-13T15:11:08.172Z,42.70
2023-02-13T15:13:35.938Z,43.00
2023-02-13T15:16:02.612Z,43.60
2023-02-13T15:18:49.600Z,43.80
2023-02-13T15:21:17.432Z,44.00
2023-02-13T15:23:44.104Z,44.60
2023-02-13T15:26:20.902Z,45.20
2023-02-13T15:28:59.123Z,45.70
2023-02-13T15:31:25.875Z,46.80
2023-02-13T15:33:52.604Z,45.90
2023-02-13T15:36:21.031Z,46.40
2023-02-13T15:38:47.711Z,46.60
2023-02-13T15:41:23.424Z,46.70
2023-02-13T15:43:53.449Z,47.20
2023-02-13T15:46:20.093Z,47.60
2023-02-13T15:48:46.811Z,47.10
2023-02-13T15:51:27.181Z,47.60
2023-02-13T15:53:54.912Z,47.90
2023-02-13T15:56:21.624Z,47.70
2023-02-13T15:58:48.335Z,47.80
2023-02-13T16:01:15.014Z,48.20
2023-02-13T16:03:41.998Z,48.40
2023-02-13T16:06:13.547Z,48.90
2023-02-13T16:08:44.007Z,49.30
2023-02-13T16:11:16.585Z,49.40
2023-02-13T16:14:37.087Z,49.80
2023-02-13T16:17:07.420Z,49.90
2023-02-13T16:19:50.461Z,49.80
2023-02-13T16:22:33.325Z,49.90
2023-02-13T16:25:17.829Z,51.90
2023-02-13T16:27:49.040Z,51.50
2023-02-13T16:30:26.356Z,50.70
2023-02-13T16:33:13.659Z,51.30
2023-02-13T16:35:47.646Z,51.40
2023-02-13T16:38:34.514Z,51.40
2023-02-13T16:41:29.094Z,52.20
2023-02-13T16:43:59.408Z,52.60
2023-02-13T16:46:34.482Z,52.20
2023-02-13T16:49:11.297Z,52.90
2023-02-13T16:52:01.068Z,53.30
2023-02-13T16:54:37.873Z,53.90
2023-02-13T16:57:25.068Z,53.90
2023-02-13T17:00:05.237Z,54.20
2023-02-13T17:02:35.881Z,54.00
2023-02-13T17:05:08.268Z,54.30
2023-02-13T17:07:39.632Z,54.40
2023-02-13T17:10:21.264Z,54.60
2023-02-13T17:12:48.367Z,54.80
2023-02-13T17:15:17.952Z,55.00
2023-02-13T17:17:44.763Z,55.30
2023-02-13T17:20:19.371Z,57.40
2023-02-13T17:22:47.829Z,55.70
2023-02-13T17:25:24.889Z,55.80
2023-02-13T17:27:53.138Z,56.30
2023-02-13T17:30:21.993Z,56.50
2023-02-13T17:32:49.213Z,56.70
2023-02-13T17:35:16.179Z,56.90
2023-02-13T17:37:43.336Z,57.00
2023-02-13T17:40:18.075Z,57.00
2023-02-13T17:42:45.813Z,57.00
2023-02-13T17:45:14.660Z,57.20
2023-02-13T17:47:41.486Z,57.60
2023-02-13T17:50:10.595Z,57.90
2023-02-13T17:52:37.749Z,58.00
2023-02-13T17:55:05.078Z,58.10
2023-02-13T17:57:31.854Z,58.20
2023-02-13T17:59:59.299Z,58.40
2023-02-13T18:02:26.175Z,58.70
2023-02-13T18:04:59.502Z,58.70
2023-02-13T18:07:26.182Z,58.90
2023-02-13T18:09:56.003Z,59.00
2023-02-13T18:12:23.608Z,59.10
2023-02-13T18:14:53.003Z,59.20
2023-02-13T18:17:19.814Z,59.20
2023-02-13T18:19:46.789Z,59.60
2023-02-13T18:22:13.731Z,59.80
2023-02-13T18:24:41.544Z,59.90
2023-02-13T18:27:08.394Z,60.20
2023-02-13T18:29:36.250Z,60.20
2023-02-13T18:32:03.317Z,60.40
2023-02-13T18:34:30.109Z,60.60
2023-02-13T18:36:56.905Z,60.60
2023-02-13T18:39:23.575Z,60.80
2023-02-13T18:41:53.473Z,60.90
2023-02-13T18:44:28.508Z,61.00
2023-02-13T18:46:59.113Z,61.10
2023-02-13T18:49:25.903Z,61.40
2023-02-13T18:51:53.134Z,61.60
2023-02-13T18:54:20.090Z,61.50
2023-02-13T18:56:46.963Z,61.60
2023-02-13T18:59:13.849Z,62.00
2023-02-13T19:01:40.708Z,62.20
2023-02-13T19:04:07.466Z,62.30
2023-02-13T19:06:34.230Z,62.50
2023-02-13T19:09:00.984Z,62.80
2023-02-13T19:11:27.850Z,63.00
2023-02-13T19:13:55.681Z,63.20
2023-02-13T19:16:22.703Z,63.20
2023-02-13T19:18:53.382Z,63.40
2023-02-13T19:21:22.332Z,63.30
2023-02-13T19:23:49.474Z,63.30
2023-02-13T19:26:20.597Z,63.50
2023-02-13T19:28:47.484Z,63.70
2023-02-13T19:31:16.280Z,64.00
2023-02-13T19:33:43.148Z,64.00
2023-02-13T19:36:11.587Z,64.20
2023-02-13T19:38:42.205Z,64.20
2023-02-13T19:41:17.238Z,64.40
2023-02-13T19:43:44.985Z,64.50
2023-02-13T19:46:11.936Z,64.70
2023-02-13T19:48:42.082Z,65.00
2023-02-13T19:51:13.872Z,65.10
2023-02-13T19:53:40.627Z,65.30
2023-02-13T19:56:07.883Z,65.30
2023-02-13T19:58:36.864Z,65.20
2023-02-13T20:01:13.789Z,65.30
2023-02-13T20:03:41.165Z,65.40
2023-02-13T20:06:21.470Z,65.60
2023-02-13T20:08:48.215Z,65.90
2023-02-13T20:11:15.876Z,65.80
2023-02-13T20:13:43.665Z,66.10
2023-02-13T20:16:12.367Z,66.20
2023-02-13T20:18:39.360Z,66.30
2023-02-13T20:21:07.245Z,66.40
2023-02-13T20:23:33.999Z,66.60
2023-02-13T20:26:30.454Z,66.70
2023-02-13T20:28:57.097Z,67.30
2023-02-13T20:31:23.836Z,66.90
2023-02-13T20:33:50.853Z,67.00
2023-02-13T20:36:19.558Z,67.10
2023-02-13T20:38:46.300Z,67.40
2023-02-13T20:41:14.635Z,67.40
2023-02-13T20:43:41.359Z,67.50
2023-02-13T20:46:10.409Z,67.50
2023-02-13T20:48:40.428Z,67.70
2023-02-13T20:51:10.126Z,67.80
2023-02-13T20:53:37.089Z,67.90
2023-02-13T20:56:05.262Z,68.00
2023-02-13T20:58:32.890Z,68.10
2023-02-13T21:01:00.392Z,68.30
2023-02-13T21:03:27.346Z,68.40
2023-02-13T21:05:54.090Z,68.60
2023-02-13T21:08:20.715Z,68.70
2023-02-13T21:10:47.373Z,68.70
2023-02-13T21:13:14.216Z,68.70
2023-02-13T21:15:41.506Z,68.80
2023-02-13T21:18:08.181Z,69.00
2023-02-13T21:20:36.273Z,69.00
2023-02-13T21:23:03.020Z,69.00
2023-02-13T21:25:29.639Z,69.10
2023-02-13T21:27:56.438Z,69.30
2023-02-13T21:30:23.237Z,69.50
2023-02-13T21:32:49.956Z,69.50
2023-02-13T21:35:16.634Z,69.50
2023-02-13T21:37:43.237Z,69.70
2023-02-13T21:40:10.244Z,69.80
2023-02-13T21:42:36.922Z,69.90
2023-02-13T21:45:03.819Z,70.00
2023-02-13T21:47:30.505Z,70.00
2023-02-13T21:49:57.165Z,70.10
2023-02-13T21:52:23.802Z,70.20
2023-02-13T21:54:53.224Z,70.20
2023-02-13T21:57:19.871Z,70.30
2023-02-13T21:59:46.626Z,70.40
2023-02-13T22:02:13.437Z,70.50
2023-02-13T22:04:41.542Z,70.80
2023-02-13T22:07:08.201Z,70.80
2023-02-13T22:09:34.955Z,70.80
2023-02-13T22:12:01.836Z,71.00
2023-02-13T22:14:28.547Z,71.10
2023-02-13T22:17:04.577Z,71.10
2023-02-13T22:19:31.186Z,71.30
2023-02-13T22:21:57.789Z,72.70
2023-02-13T22:24:24.492Z,71.60
2023-02-13T22:26:51.148Z,71.30
2023-02-13T22:29:17.922Z,71.20
2023-02-13T22:31:44.872Z,71.30
2023-02-13T22:34:12.378Z,71.30
2023-02-13T22:36:39.310Z,71.50
2023-02-13T22:39:06.540Z,71.60
2023-02-13T22:41:33.267Z,71.60
2023-02-13T22:43:59.932Z,71.70
2023-02-13T22:46:31.347Z,71.90
2023-02-13T22:48:58.481Z,71.90
2023-02-13T22:51:35.728Z,72.00
2023-02-13T22:54:02.482Z,72.00
2023-02-13T22:56:29.732Z,72.20
2023-02-13T22:58:56.466Z,72.10
2023-02-13T23:01:24.090Z,72.20
2023-02-13T23:03:50.986Z,72.40
2023-02-13T23:06:17.737Z,72.60
2023-02-13T23:08:44.518Z,72.60
2023-02-13T23:11:13.006Z,72.70
2023-02-13T23:13:39.661Z,72.70
2023-02-13T23:16:12.859Z,72.90
2023-02-13T23:18:39.848Z,72.90
2023-02-13T23:21:07.029Z,73.10
2023-02-13T23:23:35.365Z,73.00
2023-02-13T23:26:07.955Z,72.90
2023-02-13T23:28:35.394Z,73.10
2023-02-13T23:31:03.108Z,73.50
2023-02-13T23:33:29.963Z,73.30
2023-02-13T23:35:56.642Z,73.60
2023-02-13T23:38:23.319Z,73.70
2023-02-13T23:40:49.932Z,73.80
2023-02-13T23:43:16.582Z,74.00
2023-02-13T23:45:43.169Z,74.00
2023-02-13T23:48:09.775Z,73.90
2023-02-13T23:50:36.414Z,74.10
2023-02-13T23:53:03.186Z,74.10
2023-02-13T23:55:29.842Z,74.10
2023-02-13T23:57:56.540Z,74.20
